Catalina S — OEX9256 — position and weather

sailwx.info

Track history (hours):
 
Tides and Currents Weather Stations Pressure Air Temp Water Temp Dewpoint Dewpoint Depression Visibility Wind Speed Wind Dir Waves Ship Positions

Catalina S

Last reported at 2017-Aug-23 12:45 UTC. Time now 2017-Sep-24 03:36 UTC.
Position N 47°15' W 002°38'.
Warning: this ship's position is 31 days out of date.

Length 14 m.

Type: Sailing vessel. MMSI: 203274400.

Date/timePositionNaut miles runAvg speedWind from/ knotsBaromVisibWave heightAir tempDewpointWater temp
2017-Aug-23 12:45N 47°15' W 002°38'1 5.0
2017-Aug-23 12:28N 47°15' W 002°40'7 6.4
2017-Aug-23 11:26N 47°20' W 002°47'3 6.4
2017-Aug-23 11:01N 47°22' W 002°50'3 6.4
2017-Aug-23 10:29N 47°23' W 002°54'2 0.2
2017-Aug-23 01:16N 47°24' W 002°57'0 0.0
2017-Aug-23 00:49N 47°24' W 002°57'0 0.0
2017-Aug-23 00:19N 47°24' W 002°57'0 0.0
2017-Aug-22 22:49N 47°24' W 002°57'0 0.0
2017-Aug-22 18:39N 47°24' W 002°57'0 0.0
2017-Aug-22 18:21N 47°24' W 002°57'0 0.0
2017-Aug-22 17:51N 47°24' W 002°57'0 0.0
2017-Aug-22 17:30N 47°24' W 002°57'0 0.0
2017-Aug-22 16:45N 47°24' W 002°57'0 0.0
2017-Aug-22 16:30N 47°24' W 002°57'0 0.0
2017-Aug-22 15:57N 47°24' W 002°57'0 0.0
2017-Aug-22 15:27N 47°24' W 002°57'0 0.0
2017-Aug-22 15:00N 47°24' W 002°57'0 0.2
2017-Aug-22 14:29N 47°24' W 002°57'0 0.0
2017-Aug-22 14:00N 47°24' W 002°57'1 1.6
2017-Aug-22 13:30N 47°23' W 002°56'1 1.4
2017-Aug-22 13:00N 47°24' W 002°56'2 4.4
2017-Aug-22 12:30N 47°26' W 002°57'2 4.7
2017-Aug-22 12:00N 47°27' W 002°54'2 3.5
2017-Aug-22 11:31N 47°29' W 002°54'3 6.3
2017-Aug-22 11:00N 47°32' W 002°55'3 4.9
2017-Aug-22 10:30N 47°34' W 002°52'0 0.2
2017-Aug-22 10:00N 47°34' W 002°52'0 0.0
2017-Aug-22 09:30N 47°34' W 002°52'0 0.0
2017-Aug-22 09:00N 47°34' W 002°52'0 0.0
2017-Aug-22 08:30N 47°34' W 002°52'0 0.0
2017-Aug-22 08:00N 47°34' W 002°52'0 0.0
2017-Aug-22 07:30N 47°34' W 002°52'0 0.0
2017-Aug-22 07:00N 47°34' W 002°52'0 0.0
2017-Aug-22 06:30N 47°34' W 002°52'0 0.0
2017-Aug-22 06:00N 47°34' W 002°52'0 0.0
2017-Aug-22 05:30N 47°34' W 002°52'0 0.0
2017-Aug-22 05:00N 47°34' W 002°52'0 0.0
2017-Aug-22 04:30N 47°34' W 002°52'0 0.0
2017-Aug-22 04:00N 47°34' W 002°52'0 0.0
2017-Aug-22 03:30N 47°34' W 002°52'0 0.0
2017-Aug-22 03:00N 47°34' W 002°52'0 0.0
2017-Aug-22 02:30N 47°34' W 002°52'0 0.0
2017-Aug-22 01:57N 47°34' W 002°52'0 0.0
2017-Aug-22 01:30N 47°34' W 002°52'0 0.0
2017-Aug-22 01:00N 47°34' W 002°52'0 0.0
2017-Aug-22 00:30N 47°34' W 002°52'0 0.0
2017-Aug-21 23:56N 47°34' W 002°52'0 0.0
2017-Aug-21 23:29N 47°34' W 002°52'0 0.0
2017-Aug-21 22:59N 47°34' W 002°52'0 0.0
2017-Aug-21 22:26N 47°34' W 002°52'0 0.0
2017-Aug-21 21:59N 47°34' W 002°52'0 0.0
2017-Aug-21 21:29N 47°34' W 002°52'0 0.0
2017-Aug-21 20:59N 47°34' W 002°52'0 0.0
2017-Aug-21 20:29N 47°34' W 002°52'0 0.0
2017-Aug-21 19:56N 47°34' W 002°52'0 0.0
2017-Aug-21 19:26N 47°34' W 002°52'0 0.0
2017-Aug-21 18:59N 47°34' W 002°52'0 0.0
2017-Aug-21 18:26N 47°34' W 002°52'0 0.0
2017-Aug-21 17:59N 47°34' W 002°52'1 2.3
2017-Aug-21 17:30N 47°34' W 002°53'3 5.6
2017-Aug-21 17:00N 47°32' W 002°56'3 5.2
2017-Aug-21 16:30N 47°31' W 002°59'3 5.3
2017-Aug-21 15:55N 47°30' W 003°04'2 2.0
2017-Aug-21 14:56N 47°29' W 003°06'0 0.0
2017-Aug-21 12:19N 47°29' W 003°06'0 0.0
2017-Aug-21 11:19N 47°29' W 003°06'0 0.0
2017-Aug-21 10:58N 47°29' W 003°06'0 0.0
2017-Aug-21 10:16N 47°29' W 003°06'0 0.0
2017-Aug-21 09:58N 47°29' W 003°06'0 0.0
2017-Aug-21 09:25N 47°29' W 003°06'0 0.0
2017-Aug-21 08:58N 47°29' W 003°06'0 0.0
2017-Aug-21 08:28N 47°29' W 003°06'0 0.0
2017-Aug-21 07:58N 47°29' W 003°06'0 0.0
2017-Aug-21 07:28N 47°29' W 003°06'0 0.0
2017-Aug-21 06:58N 47°29' W 003°06'0 0.0
2017-Aug-21 06:25N 47°29' W 003°06'0 0.0
2017-Aug-21 05:58N 47°29' W 003°06'0 0.0
2017-Aug-21 05:28N 47°29' W 003°06'0 0.0
2017-Aug-21 04:58N 47°29' W 003°06'0 0.0
2017-Aug-21 04:28N 47°29' W 003°06'0 0.0
2017-Aug-21 03:58N 47°29' W 003°06'0 0.0
2017-Aug-21 03:28N 47°29' W 003°06'0 0.0
2017-Aug-21 02:55N 47°29' W 003°06'0 0.0
2017-Aug-21 02:28N 47°29' W 003°06'0 0.0
2017-Aug-21 01:58N 47°29' W 003°06'0 0.0
2017-Aug-21 01:28N 47°29' W 003°06'0 0.0
2017-Aug-21 00:58N 47°29' W 003°06'0 0.0
2017-Aug-21 00:28N 47°29' W 003°06'0 0.0
2017-Aug-20 23:58N 47°29' W 003°06'0 0.0
2017-Aug-20 23:28N 47°29' W 003°06'0 0.0
2017-Aug-20 22:55N 47°29' W 003°06'0 0.0
2017-Aug-20 22:28N 47°29' W 003°06'0 0.0
2017-Aug-20 21:55N 47°29' W 003°06'0 0.0
2017-Aug-20 21:28N 47°29' W 003°06'0 0.0
2017-Aug-20 20:55N 47°29' W 003°06'0 0.0
2017-Aug-20 20:28N 47°29' W 003°06'0 0.0
2017-Aug-20 19:58N 47°29' W 003°06'0 0.0
2017-Aug-20 19:28N 47°29' W 003°06'0 0.0
2017-Aug-20 18:58N 47°29' W 003°06'0 0.0
2017-Aug-20 18:28N 47°29' W 003°06'0 0.0
2017-Aug-20 17:55N 47°29' W 003°06'0 0.0
2017-Aug-20 17:25N 47°29' W 003°06'0 0.0
2017-Aug-20 16:58N 47°29' W 003°06'0 0.0
2017-Aug-20 16:28N 47°29' W 003°06'0 1.0
2017-Aug-20 16:00N 47°29' W 003°06'2 3.6
2017-Aug-20 15:30N 47°28' W 003°04'1 2.9
2017-Aug-20 15:01N 47°28' W 003°05'3 5.3
2017-Aug-20 14:30N 47°28' W 003°09'3 7.0
2017-Aug-20 14:01N 47°30' W 003°14'4 6.9
2017-Aug-20 13:30N 47°32' W 003°18'4 7.0
2017-Aug-20 13:00N 47°34' W 003°23'3 7.1
2017-Aug-20 12:31N 47°36' W 003°27'3 6.5
2017-Aug-20 11:59N 47°37' W 003°32'52 1.1
2017-Aug-18 12:53N 47°60' W 004°42'3 6.8
2017-Aug-18 12:30N 48°02' W 004°45'3 7.0
2017-Aug-18 12:00N 48°05' W 004°45'3 5.3
2017-Aug-18 11:30N 48°08' W 004°43'4 7.9
2017-Aug-18 11:00N 48°11' W 004°42'4 7.3
2017-Aug-18 10:30N 48°15' W 004°40'3 5.5
2017-Aug-18 10:00N 48°17' W 004°38'2 3.0
2017-Aug-18 09:30N 48°17' W 004°36'1 1.2
2017-Aug-18 08:58N 48°17' W 004°35'0 0.0
2017-Aug-18 08:25N 48°17' W 004°35'0 0.0
2017-Aug-18 07:58N 48°17' W 004°35'0 0.0
2017-Aug-18 07:28N 48°17' W 004°35'0 0.0
2017-Aug-18 06:58N 48°17' W 004°35'0 0.0
2017-Aug-18 06:28N 48°17' W 004°35'0 0.0
2017-Aug-18 06:00N 48°17' W 004°35'0 0.0
2017-Aug-18 05:30N 48°17' W 004°35'0 0.0
2017-Aug-18 05:00N 48°17' W 004°35'0 0.0
2017-Aug-18 04:30N 48°17' W 004°35'0 0.0
2017-Aug-18 04:00N 48°17' W 004°35'0 0.0
2017-Aug-18 03:30N 48°17' W 004°35'0 0.0
2017-Aug-18 03:00N 48°17' W 004°35'0 0.0
2017-Aug-18 02:30N 48°17' W 004°35'0 0.0
2017-Aug-18 02:00N 48°17' W 004°35'0 0.0
2017-Aug-18 01:30N 48°17' W 004°35'0 0.0
2017-Aug-18 01:00N 48°17' W 004°35'0 0.0
2017-Aug-18 00:30N 48°17' W 004°35'0 0.0
2017-Aug-18 00:00N 48°17' W 004°35'0 0.0
2017-Aug-17 23:30N 48°17' W 004°35'0 0.0
2017-Aug-17 23:00N 48°17' W 004°35'0 0.0
2017-Aug-17 22:30N 48°17' W 004°35'0 0.0
2017-Aug-17 22:00N 48°17' W 004°35'0 0.0
2017-Aug-17 21:30N 48°17' W 004°35'0 0.0
2017-Aug-17 21:00N 48°17' W 004°35'0 0.0
2017-Aug-17 20:30N 48°17' W 004°35'0 0.0
2017-Aug-17 20:00N 48°17' W 004°35'0 0.0
2017-Aug-17 19:30N 48°17' W 004°35'0 0.0
2017-Aug-17 19:00N 48°17' W 004°35'0 0.0
2017-Aug-17 18:30N 48°17' W 004°35'0 0.0
2017-Aug-17 18:00N 48°17' W 004°35'0 0.0
2017-Aug-17 17:30N 48°17' W 004°35'0 0.0
2017-Aug-17 17:00N 48°17' W 004°35'0 0.4
2017-Aug-17 16:30N 48°17' W 004°35'2 3.9
2017-Aug-17 16:00N 48°19' W 004°35'3 5.3
2017-Aug-17 15:30N 48°21' W 004°33'3 5.5
2017-Aug-17 15:00N 48°22' W 004°29'1 1.0
2017-Aug-17 14:28N 48°23' W 004°29'0 0.0
2017-Aug-17 13:58N 48°23' W 004°29'0 0.0
2017-Aug-17 13:28N 48°23' W 004°29'0 0.0
2017-Aug-17 12:58N 48°23' W 004°29'0 0.0
2017-Aug-17 12:28N 48°23' W 004°29'0 0.0
2017-Aug-17 11:58N 48°23' W 004°29'0 0.0
2017-Aug-17 11:28N 48°23' W 004°29'0 0.0
2017-Aug-17 10:58N 48°23' W 004°29'0 0.0
2017-Aug-17 10:28N 48°23' W 004°29'0 0.0
2017-Aug-17 09:58N 48°23' W 004°29'0 0.0
2017-Aug-17 09:28N 48°23' W 004°29'0 0.0
2017-Aug-17 08:58N 48°23' W 004°29'0 0.0
2017-Aug-17 08:28N 48°23' W 004°29'0 0.0
2017-Aug-17 07:58N 48°23' W 004°29'0 0.0
2017-Aug-17 07:28N 48°23' W 004°29'0 0.0
2017-Aug-17 06:58N 48°23' W 004°29'0 0.0
2017-Aug-17 06:28N 48°23' W 004°29'0 0.0
2017-Aug-17 05:58N 48°23' W 004°29'0 0.0
2017-Aug-17 05:28N 48°23' W 004°29'0 0.0
2017-Aug-17 04:58N 48°23' W 004°29'0 0.0
2017-Aug-17 04:28N 48°23' W 004°29'0 0.0
2017-Aug-17 03:58N 48°23' W 004°29'0 0.0
2017-Aug-17 03:28N 48°23' W 004°29'0 0.0
2017-Aug-17 02:58N 48°23' W 004°29'0 0.0
2017-Aug-17 02:28N 48°23' W 004°29'0 0.0
2017-Aug-17 01:58N 48°23' W 004°29'0 0.0
2017-Aug-17 01:28N 48°23' W 004°29'0 0.0
2017-Aug-17 00:58N 48°23' W 004°29'0 0.0
2017-Aug-17 00:28N 48°23' W 004°29'0 0.0
2017-Aug-16 23:58N 48°23' W 004°29'0 0.0
2017-Aug-16 23:28N 48°23' W 004°29'0 0.0
2017-Aug-16 22:58N 48°23' W 004°29'0 0.0
2017-Aug-16 22:28N 48°23' W 004°29'0 0.0
2017-Aug-16 21:58N 48°23' W 004°29'0 0.0
2017-Aug-16 21:28N 48°23' W 004°29'0 0.0
2017-Aug-16 20:58N 48°23' W 004°29'0 0.0
2017-Aug-16 20:28N 48°23' W 004°29'0 0.0
2017-Aug-16 19:58N 48°23' W 004°29'0 0.0
2017-Aug-16 19:28N 48°23' W 004°29'0 0.0
2017-Aug-16 18:58N 48°23' W 004°29'0 0.0
2017-Aug-16 18:28N 48°23' W 004°29'0 0.0
2017-Aug-16 17:58N 48°23' W 004°29'0 0.0
2017-Aug-16 17:28N 48°23' W 004°29'0 0.0
2017-Aug-16 16:58N 48°23' W 004°29'0 0.0
2017-Aug-16 16:28N 48°23' W 004°29'0 0.0
2017-Aug-16 15:58N 48°23' W 004°29'0 0.0
2017-Aug-16 15:28N 48°23' W 004°29'0 0.0
2017-Aug-16 14:58N 48°23' W 004°29'0 0.0
2017-Aug-16 14:28N 48°23' W 004°29'0 0.0
2017-Aug-16 13:58N 48°23' W 004°29'0 0.0
2017-Aug-16 13:28N 48°23' W 004°29'0 0.0
2017-Aug-16 12:58N 48°23' W 004°29'0 0.0
2017-Aug-16 12:28N 48°23' W 004°29'0 0.0
2017-Aug-16 11:58N 48°23' W 004°29'0 0.0
2017-Aug-16 11:28N 48°23' W 004°29'0 0.0
2017-Aug-16 10:58N 48°23' W 004°29'0 0.0
2017-Aug-16 10:28N 48°23' W 004°29'0 0.0
2017-Aug-16 09:58N 48°23' W 004°29'0 0.0
2017-Aug-16 09:28N 48°23' W 004°29'0 0.0
2017-Aug-16 08:58N 48°23' W 004°29'0 0.0
2017-Aug-16 08:28N 48°23' W 004°29'0 0.0
2017-Aug-16 07:58N 48°23' W 004°29'0 0.0
2017-Aug-16 07:28N 48°23' W 004°29'0 0.0
2017-Aug-16 06:58N 48°23' W 004°29'0 0.0
2017-Aug-16 06:28N 48°23' W 004°29'0 0.0
2017-Aug-16 05:58N 48°23' W 004°29'0 0.0
2017-Aug-16 05:28N 48°23' W 004°29'0 0.0
2017-Aug-16 04:58N 48°23' W 004°29'0 0.0
2017-Aug-16 04:28N 48°23' W 004°29'0 0.0
2017-Aug-16 03:58N 48°23' W 004°29'0 0.0
2017-Aug-16 03:28N 48°23' W 004°29'0 0.0
2017-Aug-16 02:58N 48°23' W 004°29'0 0.0
2017-Aug-16 02:29N 48°23' W 004°29'0 0.0
2017-Aug-16 01:59N 48°23' W 004°29'0 0.0
2017-Aug-16 01:29N 48°23' W 004°29'0 0.0
2017-Aug-16 00:59N 48°23' W 004°29'0 0.0
2017-Aug-16 00:29N 48°23' W 004°29'0 0.0
2017-Aug-15 23:59N 48°23' W 004°29'0 0.0
2017-Aug-15 23:29N 48°23' W 004°29'0 0.0
2017-Aug-15 22:59N 48°23' W 004°29'0 0.0
2017-Aug-15 22:29N 48°23' W 004°29'0 0.0
2017-Aug-15 21:59N 48°23' W 004°29'0 0.0
2017-Aug-15 21:29N 48°23' W 004°29'0 0.0
2017-Aug-15 20:59N 48°23' W 004°29'0 0.0
2017-Aug-15 20:29N 48°23' W 004°29'0 0.0
2017-Aug-15 19:59N 48°23' W 004°29'0 0.0
2017-Aug-15 19:29N 48°23' W 004°29'0 0.0
2017-Aug-15 19:00N 48°23' W 004°29'0 0.0
2017-Aug-15 18:30N 48°23' W 004°29'0 0.0
2017-Aug-15 18:00N 48°23' W 004°29'0 0.0
2017-Aug-15 17:30N 48°23' W 004°29'0 0.0
2017-Aug-15 17:00N 48°23' W 004°29'0 0.0
2017-Aug-15 16:30N 48°23' W 004°29'0 0.0
2017-Aug-15 16:00N 48°23' W 004°29'0 0.0
2017-Aug-15 15:30N 48°23' W 004°29'0 0.0
2017-Aug-15 15:00N 48°23' W 004°29'0 0.0
2017-Aug-15 14:30N 48°23' W 004°29'0 0.0
2017-Aug-15 14:00N 48°23' W 004°29'0 0.0
2017-Aug-15 13:30N 48°23' W 004°29'0 0.0
2017-Aug-15 13:00N 48°23' W 004°29'0 0.0
2017-Aug-15 12:30N 48°23' W 004°29'0 0.0
2017-Aug-15 12:00N 48°23' W 004°29'0 0.0
2017-Aug-15 11:30N 48°23' W 004°29'0 0.0
2017-Aug-15 11:00N 48°23' W 004°29'0 0.0
2017-Aug-15 10:30N 48°23' W 004°29'0 0.0
2017-Aug-15 10:00N 48°23' W 004°29'0 0.0
2017-Aug-15 09:30N 48°23' W 004°29'0 0.0
2017-Aug-15 09:00N 48°23' W 004°29'0 0.0
2017-Aug-15 08:30N 48°23' W 004°29'0 0.0
2017-Aug-15 08:00N 48°23' W 004°29'0 0.0
2017-Aug-15 07:30N 48°23' W 004°29'0 0.0
2017-Aug-15 07:00N 48°23' W 004°29'0 0.0
2017-Aug-15 06:30N 48°23' W 004°29'0 0.0
2017-Aug-15 06:00N 48°23' W 004°29'0 0.0
2017-Aug-15 05:30N 48°23' W 004°29'0 0.0
2017-Aug-15 05:00N 48°23' W 004°29'0 0.0
2017-Aug-15 04:30N 48°23' W 004°29'0 0.0
2017-Aug-15 04:00N 48°23' W 004°29'0 0.0
2017-Aug-15 03:30N 48°23' W 004°29'0 0.0
2017-Aug-15 03:00N 48°23' W 004°29'0 0.0
2017-Aug-15 02:30N 48°23' W 004°29'0 0.0
2017-Aug-15 02:00N 48°23' W 004°29'0 0.0
2017-Aug-15 01:30N 48°23' W 004°29'0 0.0
2017-Aug-15 01:00N 48°23' W 004°29'0 0.0
2017-Aug-15 00:30N 48°23' W 004°29'0 0.0
2017-Aug-15 00:00N 48°23' W 004°29'0 0.0
2017-Aug-14 23:30N 48°23' W 004°29'0 0.0
2017-Aug-14 23:00N 48°23' W 004°29'0 0.0
2017-Aug-14 22:30N 48°23' W 004°29'0 0.0
2017-Aug-14 22:00N 48°23' W 004°29'0 0.0
2017-Aug-14 21:30N 48°23' W 004°29'0 0.0
2017-Aug-14 21:00N 48°23' W 004°29'0 0.0
2017-Aug-14 20:28N 48°23' W 004°29'0 0.0
2017-Aug-14 19:58N 48°23' W 004°29'0 0.0
2017-Aug-14 19:28N 48°23' W 004°29'0 0.0
2017-Aug-14 18:58N 48°23' W 004°29'0 0.0
2017-Aug-14 18:28N 48°23' W 004°29'0 0.0
2017-Aug-14 17:58N 48°23' W 004°29'0 0.0
2017-Aug-14 17:28N 48°23' W 004°29'0 0.0
2017-Aug-14 16:58N 48°23' W 004°29'0 0.0
2017-Aug-14 16:28N 48°23' W 004°29'0 0.0
2017-Aug-14 15:58N 48°23' W 004°29'0 0.0
2017-Aug-14 15:29N 48°23' W 004°29'0 0.0
2017-Aug-14 14:58N 48°23' W 004°29'0 0.0
2017-Aug-14 14:28N 48°23' W 004°29'0 0.0
2017-Aug-14 13:58N 48°23' W 004°29'0 0.0
2017-Aug-14 13:28N 48°23' W 004°29'0 0.0
2017-Aug-14 12:58N 48°23' W 004°29'0 0.0
2017-Aug-14 12:29N 48°23' W 004°29'0 0.0
2017-Aug-14 11:58N 48°23' W 004°29'0 0.0
2017-Aug-14 11:28N 48°23' W 004°29'0 0.0
2017-Aug-14 10:58N 48°23' W 004°29'0 0.0
2017-Aug-14 10:28N 48°23' W 004°29'0 0.0
2017-Aug-14 09:58N 48°23' W 004°29'0 0.0
2017-Aug-14 09:29N 48°23' W 004°29'0 0.0
2017-Aug-14 08:59N 48°23' W 004°29'0 0.0
2017-Aug-14 08:28N 48°23' W 004°29'0 0.0
2017-Aug-14 07:58N 48°23' W 004°29'0 0.0
2017-Aug-14 07:28N 48°23' W 004°29'0 0.0
2017-Aug-14 06:58N 48°23' W 004°29'0 0.0
2017-Aug-14 06:28N 48°23' W 004°29'0 0.0
2017-Aug-14 05:58N 48°23' W 004°29'0 0.0
2017-Aug-14 05:29N 48°23' W 004°29'0 0.0
2017-Aug-14 04:58N 48°23' W 004°29'0 0.0
2017-Aug-14 04:28N 48°23' W 004°29'0 0.0
2017-Aug-14 03:59N 48°23' W 004°29'0 0.0
2017-Aug-14 03:28N 48°23' W 004°29'0 0.0
2017-Aug-14 02:58N 48°23' W 004°29'0 0.0
2017-Aug-14 02:28N 48°23' W 004°29'0 0.0
2017-Aug-14 01:58N 48°23' W 004°29'0 0.0
2017-Aug-14 01:28N 48°23' W 004°29'0 0.0
2017-Aug-14 00:58N 48°23' W 004°29'0 0.0
2017-Aug-14 00:28N 48°23' W 004°29'0 0.0
2017-Aug-13 23:58N 48°23' W 004°29'0 0.0
2017-Aug-13 23:28N 48°23' W 004°29'0 0.0
2017-Aug-13 22:58N 48°23' W 004°29'0 0.0
2017-Aug-13 22:28N 48°23' W 004°29'0 0.0
2017-Aug-13 21:58N 48°23' W 004°29'0 0.0
2017-Aug-13 21:28N 48°23' W 004°29'0 0.0
2017-Aug-13 20:58N 48°23' W 004°29'0 0.0
2017-Aug-13 20:28N 48°23' W 004°29'0 0.0
2017-Aug-13 19:58N 48°23' W 004°29'0 0.0
2017-Aug-13 19:28N 48°23' W 004°29'0 0.0
2017-Aug-13 18:58N 48°23' W 004°29'0 0.0
2017-Aug-13 18:28N 48°23' W 004°29'0 0.0
2017-Aug-13 17:58N 48°23' W 004°29'0 0.0
2017-Aug-13 17:28N 48°23' W 004°29'0 0.0
2017-Aug-13 16:58N 48°23' W 004°29'0 0.0
2017-Aug-13 16:28N 48°23' W 004°29'0 0.0
2017-Aug-13 15:58N 48°23' W 004°29'0 0.0
2017-Aug-13 15:28N 48°23' W 004°29'0 0.0
2017-Aug-13 14:58N 48°23' W 004°29'0 0.0
2017-Aug-13 14:28N 48°23' W 004°29'0 0.0
2017-Aug-13 13:58N 48°23' W 004°29'0 0.0
2017-Aug-13 13:28N 48°23' W 004°29'0 0.0
2017-Aug-13 12:58N 48°23' W 004°29'  
Track history (hours):
 
Tides and Currents Weather Stations Pressure Air Temp Water Temp Dewpoint Dewpoint Depression Visibility Wind Speed Wind Dir Waves Ship Positions

Catalina S

Last reported at 2017-Aug-23 12:45 UTC. Time now 2017-Sep-24 03:36 UTC.
Position N 47°15' W 002°38'.
Warning: this ship's position is 31 days out of date.

Length 14 m.

Type: Sailing vessel. MMSI: 203274400.

Date/timePositionNaut miles runAvg speedWind from/ knotsBaromVisibWave heightAir tempDewpointWater temp
2017-Aug-23 12:45N 47°15' W 002°38'1 5.0
2017-Aug-23 12:28N 47°15' W 002°40'7 6.4
2017-Aug-23 11:26N 47°20' W 002°47'3 6.4
2017-Aug-23 11:01N 47°22' W 002°50'3 6.4
2017-Aug-23 10:29N 47°23' W 002°54'2 0.2
2017-Aug-23 01:16N 47°24' W 002°57'0 0.0
2017-Aug-23 00:49N 47°24' W 002°57'0 0.0
2017-Aug-23 00:19N 47°24' W 002°57'0 0.0
2017-Aug-22 22:49N 47°24' W 002°57'0 0.0
2017-Aug-22 18:39N 47°24' W 002°57'0 0.0
2017-Aug-22 18:21N 47°24' W 002°57'0 0.0
2017-Aug-22 17:51N 47°24' W 002°57'0 0.0
2017-Aug-22 17:30N 47°24' W 002°57'0 0.0
2017-Aug-22 16:45N 47°24' W 002°57'0 0.0
2017-Aug-22 16:30N 47°24' W 002°57'0 0.0
2017-Aug-22 15:57N 47°24' W 002°57'0 0.0
2017-Aug-22 15:27N 47°24' W 002°57'0 0.0
2017-Aug-22 15:00N 47°24' W 002°57'0 0.2
2017-Aug-22 14:29N 47°24' W 002°57'0 0.0
2017-Aug-22 14:00N 47°24' W 002°57'1 1.6
2017-Aug-22 13:30N 47°23' W 002°56'1 1.4
2017-Aug-22 13:00N 47°24' W 002°56'2 4.4
2017-Aug-22 12:30N 47°26' W 002°57'2 4.7
2017-Aug-22 12:00N 47°27' W 002°54'2 3.5
2017-Aug-22 11:31N 47°29' W 002°54'3 6.3
2017-Aug-22 11:00N 47°32' W 002°55'3 4.9
2017-Aug-22 10:30N 47°34' W 002°52'0 0.2
2017-Aug-22 10:00N 47°34' W 002°52'0 0.0
2017-Aug-22 09:30N 47°34' W 002°52'0 0.0
2017-Aug-22 09:00N 47°34' W 002°52'0 0.0
2017-Aug-22 08:30N 47°34' W 002°52'0 0.0
2017-Aug-22 08:00N 47°34' W 002°52'0 0.0
2017-Aug-22 07:30N 47°34' W 002°52'0 0.0
2017-Aug-22 07:00N 47°34' W 002°52'0 0.0
2017-Aug-22 06:30N 47°34' W 002°52'0 0.0
2017-Aug-22 06:00N 47°34' W 002°52'0 0.0
2017-Aug-22 05:30N 47°34' W 002°52'0 0.0
2017-Aug-22 05:00N 47°34' W 002°52'0 0.0
2017-Aug-22 04:30N 47°34' W 002°52'0 0.0
2017-Aug-22 04:00N 47°34' W 002°52'0 0.0
2017-Aug-22 03:30N 47°34' W 002°52'0 0.0
2017-Aug-22 03:00N 47°34' W 002°52'0 0.0
2017-Aug-22 02:30N 47°34' W 002°52'0 0.0
2017-Aug-22 01:57N 47°34' W 002°52'0 0.0
2017-Aug-22 01:30N 47°34' W 002°52'0 0.0
2017-Aug-22 01:00N 47°34' W 002°52'0 0.0
2017-Aug-22 00:30N 47°34' W 002°52'0 0.0
2017-Aug-21 23:56N 47°34' W 002°52'0 0.0
2017-Aug-21 23:29N 47°34' W 002°52'0 0.0
2017-Aug-21 22:59N 47°34' W 002°52'0 0.0
2017-Aug-21 22:26N 47°34' W 002°52'0 0.0
2017-Aug-21 21:59N 47°34' W 002°52'0 0.0
2017-Aug-21 21:29N 47°34' W 002°52'0 0.0
2017-Aug-21 20:59N 47°34' W 002°52'0 0.0
2017-Aug-21 20:29N 47°34' W 002°52'0 0.0
2017-Aug-21 19:56N 47°34' W 002°52'0 0.0
2017-Aug-21 19:26N 47°34' W 002°52'0 0.0
2017-Aug-21 18:59N 47°34' W 002°52'0 0.0
2017-Aug-21 18:26N 47°34' W 002°52'0 0.0
2017-Aug-21 17:59N 47°34' W 002°52'1 2.3
2017-Aug-21 17:30N 47°34' W 002°53'3 5.6
2017-Aug-21 17:00N 47°32' W 002°56'3 5.2
2017-Aug-21 16:30N 47°31' W 002°59'3 5.3
2017-Aug-21 15:55N 47°30' W 003°04'2 2.0
2017-Aug-21 14:56N 47°29' W 003°06'0 0.0
2017-Aug-21 12:19N 47°29' W 003°06'0 0.0
2017-Aug-21 11:19N 47°29' W 003°06'0 0.0
2017-Aug-21 10:58N 47°29' W 003°06'0 0.0
2017-Aug-21 10:16N 47°29' W 003°06'0 0.0
2017-Aug-21 09:58N 47°29' W 003°06'0 0.0
2017-Aug-21 09:25N 47°29' W 003°06'0 0.0
2017-Aug-21 08:58N 47°29' W 003°06'0 0.0
2017-Aug-21 08:28N 47°29' W 003°06'0 0.0
2017-Aug-21 07:58N 47°29' W 003°06'0 0.0
2017-Aug-21 07:28N 47°29' W 003°06'0 0.0
2017-Aug-21 06:58N 47°29' W 003°06'0 0.0
2017-Aug-21 06:25N 47°29' W 003°06'0 0.0
2017-Aug-21 05:58N 47°29' W 003°06'0 0.0
2017-Aug-21 05:28N 47°29' W 003°06'0 0.0
2017-Aug-21 04:58N 47°29' W 003°06'0 0.0
2017-Aug-21 04:28N 47°29' W 003°06'0 0.0
2017-Aug-21 03:58N 47°29' W 003°06'0 0.0
2017-Aug-21 03:28N 47°29' W 003°06'0 0.0
2017-Aug-21 02:55N 47°29' W 003°06'0 0.0
2017-Aug-21 02:28N 47°29' W 003°06'0 0.0
2017-Aug-21 01:58N 47°29' W 003°06'0 0.0
2017-Aug-21 01:28N 47°29' W 003°06'0 0.0
2017-Aug-21 00:58N 47°29' W 003°06'0 0.0
2017-Aug-21 00:28N 47°29' W 003°06'0 0.0
2017-Aug-20 23:58N 47°29' W 003°06'0 0.0
2017-Aug-20 23:28N 47°29' W 003°06'0 0.0
2017-Aug-20 22:55N 47°29' W 003°06'0 0.0
2017-Aug-20 22:28N 47°29' W 003°06'0 0.0
2017-Aug-20 21:55N 47°29' W 003°06'0 0.0
2017-Aug-20 21:28N 47°29' W 003°06'0 0.0
2017-Aug-20 20:55N 47°29' W 003°06'0 0.0
2017-Aug-20 20:28N 47°29' W 003°06'0 0.0
2017-Aug-20 19:58N 47°29' W 003°06'0 0.0
2017-Aug-20 19:28N 47°29' W 003°06'0 0.0
2017-Aug-20 18:58N 47°29' W 003°06'0 0.0
2017-Aug-20 18:28N 47°29' W 003°06'0 0.0
2017-Aug-20 17:55N 47°29' W 003°06'0 0.0
2017-Aug-20 17:25N 47°29' W 003°06'0 0.0
2017-Aug-20 16:58N 47°29' W 003°06'0 0.0
2017-Aug-20 16:28N 47°29' W 003°06'0 1.0
2017-Aug-20 16:00N 47°29' W 003°06'2 3.6
2017-Aug-20 15:30N 47°28' W 003°04'1 2.9
2017-Aug-20 15:01N 47°28' W 003°05'3 5.3
2017-Aug-20 14:30N 47°28' W 003°09'3 7.0
2017-Aug-20 14:01N 47°30' W 003°14'4 6.9
2017-Aug-20 13:30N 47°32' W 003°18'4 7.0
2017-Aug-20 13:00N 47°34' W 003°23'3 7.1
2017-Aug-20 12:31N 47°36' W 003°27'3 6.5
2017-Aug-20 11:59N 47°37' W 003°32'52 1.1
2017-Aug-18 12:53N 47°60' W 004°42'3 6.8
2017-Aug-18 12:30N 48°02' W 004°45'3 7.0
2017-Aug-18 12:00N 48°05' W 004°45'3 5.3
2017-Aug-18 11:30N 48°08' W 004°43'4 7.9
2017-Aug-18 11:00N 48°11' W 004°42'4 7.3
2017-Aug-18 10:30N 48°15' W 004°40'3 5.5
2017-Aug-18 10:00N 48°17' W 004°38'2 3.0
2017-Aug-18 09:30N 48°17' W 004°36'1 1.2
2017-Aug-18 08:58N 48°17' W 004°35'0 0.0
2017-Aug-18 08:25N 48°17' W 004°35'0 0.0
2017-Aug-18 07:58N 48°17' W 004°35'0 0.0
2017-Aug-18 07:28N 48°17' W 004°35'0 0.0
2017-Aug-18 06:58N 48°17' W 004°35'0 0.0
2017-Aug-18 06:28N 48°17' W 004°35'0 0.0
2017-Aug-18 06:00N 48°17' W 004°35'0 0.0
2017-Aug-18 05:30N 48°17' W 004°35'0 0.0
2017-Aug-18 05:00N 48°17' W 004°35'0 0.0
2017-Aug-18 04:30N 48°17' W 004°35'0 0.0
2017-Aug-18 04:00N 48°17' W 004°35'0 0.0
2017-Aug-18 03:30N 48°17' W 004°35'0 0.0
2017-Aug-18 03:00N 48°17' W 004°35'0 0.0
2017-Aug-18 02:30N 48°17' W 004°35'0 0.0
2017-Aug-18 02:00N 48°17' W 004°35'0 0.0
2017-Aug-18 01:30N 48°17' W 004°35'0 0.0
2017-Aug-18 01:00N 48°17' W 004°35'0 0.0
2017-Aug-18 00:30N 48°17' W 004°35'0 0.0
2017-Aug-18 00:00N 48°17' W 004°35'0 0.0
2017-Aug-17 23:30N 48°17' W 004°35'0 0.0
2017-Aug-17 23:00N 48°17' W 004°35'0 0.0
2017-Aug-17 22:30N 48°17' W 004°35'0 0.0
2017-Aug-17 22:00N 48°17' W 004°35'0 0.0
2017-Aug-17 21:30N 48°17' W 004°35'0 0.0
2017-Aug-17 21:00N 48°17' W 004°35'0 0.0
2017-Aug-17 20:30N 48°17' W 004°35'0 0.0
2017-Aug-17 20:00N 48°17' W 004°35'0 0.0
2017-Aug-17 19:30N 48°17' W 004°35'0 0.0
2017-Aug-17 19:00N 48°17' W 004°35'0 0.0
2017-Aug-17 18:30N 48°17' W 004°35'0 0.0
2017-Aug-17 18:00N 48°17' W 004°35'0 0.0
2017-Aug-17 17:30N 48°17' W 004°35'0 0.0
2017-Aug-17 17:00N 48°17' W 004°35'0 0.4
2017-Aug-17 16:30N 48°17' W 004°35'2 3.9
2017-Aug-17 16:00N 48°19' W 004°35'3 5.3
2017-Aug-17 15:30N 48°21' W 004°33'3 5.5
2017-Aug-17 15:00N 48°22' W 004°29'1 1.0
2017-Aug-17 14:28N 48°23' W 004°29'0 0.0
2017-Aug-17 13:58N 48°23' W 004°29'0 0.0
2017-Aug-17 13:28N 48°23' W 004°29'0 0.0
2017-Aug-17 12:58N 48°23' W 004°29'0 0.0
2017-Aug-17 12:28N 48°23' W 004°29'0 0.0
2017-Aug-17 11:58N 48°23' W 004°29'0 0.0
2017-Aug-17 11:28N 48°23' W 004°29'0 0.0
2017-Aug-17 10:58N 48°23' W 004°29'0 0.0
2017-Aug-17 10:28N 48°23' W 004°29'0 0.0
2017-Aug-17 09:58N 48°23' W 004°29'0 0.0
2017-Aug-17 09:28N 48°23' W 004°29'0 0.0
2017-Aug-17 08:58N 48°23' W 004°29'0 0.0
2017-Aug-17 08:28N 48°23' W 004°29'0 0.0
2017-Aug-17 07:58N 48°23' W 004°29'0 0.0
2017-Aug-17 07:28N 48°23' W 004°29'0 0.0
2017-Aug-17 06:58N 48°23' W 004°29'0 0.0
2017-Aug-17 06:28N 48°23' W 004°29'0 0.0
2017-Aug-17 05:58N 48°23' W 004°29'0 0.0
2017-Aug-17 05:28N 48°23' W 004°29'0 0.0
2017-Aug-17 04:58N 48°23' W 004°29'0 0.0
2017-Aug-17 04:28N 48°23' W 004°29'0 0.0
2017-Aug-17 03:58N 48°23' W 004°29'0 0.0
2017-Aug-17 03:28N 48°23' W 004°29'0 0.0
2017-Aug-17 02:58N 48°23' W 004°29'0 0.0
2017-Aug-17 02:28N 48°23' W 004°29'0 0.0
2017-Aug-17 01:58N 48°23' W 004°29'0 0.0
2017-Aug-17 01:28N 48°23' W 004°29'0 0.0
2017-Aug-17 00:58N 48°23' W 004°29'0 0.0
2017-Aug-17 00:28N 48°23' W 004°29'0 0.0
2017-Aug-16 23:58N 48°23' W 004°29'0 0.0
2017-Aug-16 23:28N 48°23' W 004°29'0 0.0
2017-Aug-16 22:58N 48°23' W 004°29'0 0.0
2017-Aug-16 22:28N 48°23' W 004°29'0 0.0
2017-Aug-16 21:58N 48°23' W 004°29'0 0.0
2017-Aug-16 21:28N 48°23' W 004°29'0 0.0
2017-Aug-16 20:58N 48°23' W 004°29'0 0.0
2017-Aug-16 20:28N 48°23' W 004°29'0 0.0
2017-Aug-16 19:58N 48°23' W 004°29'0 0.0
2017-Aug-16 19:28N 48°23' W 004°29'0 0.0
2017-Aug-16 18:58N 48°23' W 004°29'0 0.0
2017-Aug-16 18:28N 48°23' W 004°29'0 0.0
2017-Aug-16 17:58N 48°23' W 004°29'0 0.0
2017-Aug-16 17:28N 48°23' W 004°29'0 0.0
2017-Aug-16 16:58N 48°23' W 004°29'0 0.0
2017-Aug-16 16:28N 48°23' W 004°29'0 0.0
2017-Aug-16 15:58N 48°23' W 004°29'0 0.0
2017-Aug-16 15:28N 48°23' W 004°29'0 0.0
2017-Aug-16 14:58N 48°23' W 004°29'0 0.0
2017-Aug-16 14:28N 48°23' W 004°29'0 0.0
2017-Aug-16 13:58N 48°23' W 004°29'0 0.0
2017-Aug-16 13:28N 48°23' W 004°29'0 0.0
2017-Aug-16 12:58N 48°23' W 004°29'0 0.0
2017-Aug-16 12:28N 48°23' W 004°29'0 0.0
2017-Aug-16 11:58N 48°23' W 004°29'0 0.0
2017-Aug-16 11:28N 48°23' W 004°29'0 0.0
2017-Aug-16 10:58N 48°23' W 004°29'0 0.0
2017-Aug-16 10:28N 48°23' W 004°29'0 0.0
2017-Aug-16 09:58N 48°23' W 004°29'0 0.0
2017-Aug-16 09:28N 48°23' W 004°29'0 0.0
2017-Aug-16 08:58N 48°23' W 004°29'0 0.0
2017-Aug-16 08:28N 48°23' W 004°29'0 0.0
2017-Aug-16 07:58N 48°23' W 004°29'0 0.0
2017-Aug-16 07:28N 48°23' W 004°29'0 0.0
2017-Aug-16 06:58N 48°23' W 004°29'0 0.0
2017-Aug-16 06:28N 48°23' W 004°29'0 0.0
2017-Aug-16 05:58N 48°23' W 004°29'0 0.0
2017-Aug-16 05:28N 48°23' W 004°29'0 0.0
2017-Aug-16 04:58N 48°23' W 004°29'0 0.0
2017-Aug-16 04:28N 48°23' W 004°29'0 0.0
2017-Aug-16 03:58N 48°23' W 004°29'0 0.0
2017-Aug-16 03:28N 48°23' W 004°29'0 0.0
2017-Aug-16 02:58N 48°23' W 004°29'0 0.0
2017-Aug-16 02:29N 48°23' W 004°29'0 0.0
2017-Aug-16 01:59N 48°23' W 004°29'0 0.0
2017-Aug-16 01:29N 48°23' W 004°29'0 0.0
2017-Aug-16 00:59N 48°23' W 004°29'0 0.0
2017-Aug-16 00:29N 48°23' W 004°29'0 0.0
2017-Aug-15 23:59N 48°23' W 004°29'0 0.0
2017-Aug-15 23:29N 48°23' W 004°29'0 0.0
2017-Aug-15 22:59N 48°23' W 004°29'0 0.0
2017-Aug-15 22:29N 48°23' W 004°29'0 0.0
2017-Aug-15 21:59N 48°23' W 004°29'0 0.0
2017-Aug-15 21:29N 48°23' W 004°29'0 0.0
2017-Aug-15 20:59N 48°23' W 004°29'0 0.0
2017-Aug-15 20:29N 48°23' W 004°29'0 0.0
2017-Aug-15 19:59N 48°23' W 004°29'0 0.0
2017-Aug-15 19:29N 48°23' W 004°29'0 0.0
2017-Aug-15 19:00N 48°23' W 004°29'0 0.0
2017-Aug-15 18:30N 48°23' W 004°29'0 0.0
2017-Aug-15 18:00N 48°23' W 004°29'0 0.0
2017-Aug-15 17:30N 48°23' W 004°29'0 0.0
2017-Aug-15 17:00N 48°23' W 004°29'0 0.0
2017-Aug-15 16:30N 48°23' W 004°29'0 0.0
2017-Aug-15 16:00N 48°23' W 004°29'0 0.0
2017-Aug-15 15:30N 48°23' W 004°29'0 0.0
2017-Aug-15 15:00N 48°23' W 004°29'0 0.0
2017-Aug-15 14:30N 48°23' W 004°29'0 0.0
2017-Aug-15 14:00N 48°23' W 004°29'0 0.0
2017-Aug-15 13:30N 48°23' W 004°29'0 0.0
2017-Aug-15 13:00N 48°23' W 004°29'0 0.0
2017-Aug-15 12:30N 48°23' W 004°29'0 0.0
2017-Aug-15 12:00N 48°23' W 004°29'0 0.0
2017-Aug-15 11:30N 48°23' W 004°29'0 0.0
2017-Aug-15 11:00N 48°23' W 004°29'0 0.0
2017-Aug-15 10:30N 48°23' W 004°29'0 0.0
2017-Aug-15 10:00N 48°23' W 004°29'0 0.0
2017-Aug-15 09:30N 48°23' W 004°29'0 0.0
2017-Aug-15 09:00N 48°23' W 004°29'0 0.0
2017-Aug-15 08:30N 48°23' W 004°29'0 0.0
2017-Aug-15 08:00N 48°23' W 004°29'0 0.0
2017-Aug-15 07:30N 48°23' W 004°29'0 0.0
2017-Aug-15 07:00N 48°23' W 004°29'0 0.0
2017-Aug-15 06:30N 48°23' W 004°29'0 0.0
2017-Aug-15 06:00N 48°23' W 004°29'0 0.0
2017-Aug-15 05:30N 48°23' W 004°29'0 0.0
2017-Aug-15 05:00N 48°23' W 004°29'0 0.0
2017-Aug-15 04:30N 48°23' W 004°29'0 0.0
2017-Aug-15 04:00N 48°23' W 004°29'0 0.0
2017-Aug-15 03:30N 48°23' W 004°29'0 0.0
2017-Aug-15 03:00N 48°23' W 004°29'0 0.0
2017-Aug-15 02:30N 48°23' W 004°29'0 0.0
2017-Aug-15 02:00N 48°23' W 004°29'0 0.0
2017-Aug-15 01:30N 48°23' W 004°29'0 0.0
2017-Aug-15 01:00N 48°23' W 004°29'0 0.0
2017-Aug-15 00:30N 48°23' W 004°29'0 0.0
2017-Aug-15 00:00N 48°23' W 004°29'0 0.0
2017-Aug-14 23:30N 48°23' W 004°29'0 0.0
2017-Aug-14 23:00N 48°23' W 004°29'0 0.0
2017-Aug-14 22:30N 48°23' W 004°29'0 0.0
2017-Aug-14 22:00N 48°23' W 004°29'0 0.0
2017-Aug-14 21:30N 48°23' W 004°29'0 0.0
2017-Aug-14 21:00N 48°23' W 004°29'0 0.0
2017-Aug-14 20:28N 48°23' W 004°29'0 0.0
2017-Aug-14 19:58N 48°23' W 004°29'0 0.0
2017-Aug-14 19:28N 48°23' W 004°29'0 0.0
2017-Aug-14 18:58N 48°23' W 004°29'0 0.0
2017-Aug-14 18:28N 48°23' W 004°29'0 0.0
2017-Aug-14 17:58N 48°23' W 004°29'0 0.0
2017-Aug-14 17:28N 48°23' W 004°29'0 0.0
2017-Aug-14 16:58N 48°23' W 004°29'0 0.0
2017-Aug-14 16:28N 48°23' W 004°29'0 0.0
2017-Aug-14 15:58N 48°23' W 004°29'0 0.0
2017-Aug-14 15:29N 48°23' W 004°29'0 0.0
2017-Aug-14 14:58N 48°23' W 004°29'0 0.0
2017-Aug-14 14:28N 48°23' W 004°29'0 0.0
2017-Aug-14 13:58N 48°23' W 004°29'0 0.0
2017-Aug-14 13:28N 48°23' W 004°29'0 0.0
2017-Aug-14 12:58N 48°23' W 004°29'0 0.0
2017-Aug-14 12:29N 48°23' W 004°29'0 0.0
2017-Aug-14 11:58N 48°23' W 004°29'0 0.0
2017-Aug-14 11:28N 48°23' W 004°29'0 0.0
2017-Aug-14 10:58N 48°23' W 004°29'0 0.0
2017-Aug-14 10:28N 48°23' W 004°29'0 0.0
2017-Aug-14 09:58N 48°23' W 004°29'0 0.0
2017-Aug-14 09:29N 48°23' W 004°29'0 0.0
2017-Aug-14 08:59N 48°23' W 004°29'0 0.0
2017-Aug-14 08:28N 48°23' W 004°29'0 0.0
2017-Aug-14 07:58N 48°23' W 004°29'0 0.0
2017-Aug-14 07:28N 48°23' W 004°29'0 0.0
2017-Aug-14 06:58N 48°23' W 004°29'0 0.0
2017-Aug-14 06:28N 48°23' W 004°29'0 0.0
2017-Aug-14 05:58N 48°23' W 004°29'0 0.0
2017-Aug-14 05:29N 48°23' W 004°29'0 0.0
2017-Aug-14 04:58N 48°23' W 004°29'0 0.0
2017-Aug-14 04:28N 48°23' W 004°29'0 0.0
2017-Aug-14 03:59N 48°23' W 004°29'0 0.0
2017-Aug-14 03:28N 48°23' W 004°29'0 0.0
2017-Aug-14 02:58N 48°23' W 004°29'0 0.0
2017-Aug-14 02:28N 48°23' W 004°29'0 0.0
2017-Aug-14 01:58N 48°23' W 004°29'0 0.0
2017-Aug-14 01:28N 48°23' W 004°29'0 0.0
2017-Aug-14 00:58N 48°23' W 004°29'0 0.0
2017-Aug-14 00:28N 48°23' W 004°29'0 0.0
2017-Aug-13 23:58N 48°23' W 004°29'0 0.0
2017-Aug-13 23:28N 48°23' W 004°29'0 0.0
2017-Aug-13 22:58N 48°23' W 004°29'0 0.0
2017-Aug-13 22:28N 48°23' W 004°29'0 0.0
2017-Aug-13 21:58N 48°23' W 004°29'0 0.0
2017-Aug-13 21:28N 48°23' W 004°29'0 0.0
2017-Aug-13 20:58N 48°23' W 004°29'0 0.0
2017-Aug-13 20:28N 48°23' W 004°29'0 0.0
2017-Aug-13 19:58N 48°23' W 004°29'0 0.0
2017-Aug-13 19:28N 48°23' W 004°29'0 0.0
2017-Aug-13 18:58N 48°23' W 004°29'0 0.0
2017-Aug-13 18:28N 48°23' W 004°29'0 0.0
2017-Aug-13 17:58N 48°23' W 004°29'0 0.0
2017-Aug-13 17:28N 48°23' W 004°29'0 0.0
2017-Aug-13 16:58N 48°23' W 004°29'0 0.0
2017-Aug-13 16:28N 48°23' W 004°29'0 0.0
2017-Aug-13 15:58N 48°23' W 004°29'0 0.0
2017-Aug-13 15:28N 48°23' W 004°29'0 0.0
2017-Aug-13 14:58N 48°23' W 004°29'0 0.0
2017-Aug-13 14:28N 48°23' W 004°29'0 0.0
2017-Aug-13 13:58N 48°23' W 004°29'0 0.0
2017-Aug-13 13:28N 48°23' W 004°29'0 0.0
2017-Aug-13 12:58N 48°23' W 004°29'  

Dump ship's entire track history